Mora, Minnesota
Current Conditions -  °F | °C
As of 1:34 PM on Saturday 25 Oct 2014 (Local Time) from KJMR Reporting Station
Clear Clear  
Wind Chill: 59°   Ceiling: Unl
Heat Index: 59°   Visibility: 10mi
Dew Point: 27°   Wind: 13mph
Humidity: 29%   Direction: 300°WNW
Pressure: 30.01"   Gusts: 16mph
Location:  45.88°N, 93.29°W
Report Text: KJMR 251834Z AUTO 30011G14KT 10SM CLR 15/M03 A3001 RMK AO2
Loading
Personal Weather Stations






























Interactive Weather Map
Tropical Storm Tracking
New forecast layout! Learn more

10-Day Weather Forecast

Advertisements
Track Severe Weather on mobile